Time;durP1;ratioP1;P1;durP2;ratioP2;P2;SDS_P1;SDS_P2;PMS_P1;PMS_P2;Temp;Humidity;BMP_temperature;BMP_pressure;BME280_temperature;BME280_humidity;BME280_pressure;Samples;Min_cycle;Max_cycle;Signal;HPM_P1;HPM_P2
2022/09/04 00:00:14;;;;;;;0.95;0.90;;;18.30;60.40;;;;;;6273631;22;20004;-74
2022/09/04 00:02:56;;;;;;;1.20;1.00;;;18.30;60.50;;;;;;6273800;22;20038;-74
2022/09/04 00:05:44;;;;;;;1.20;1.00;;;18.20;60.60;;;;;;6270604;22;20019;-74
2022/09/04 00:08:46;;;;;;;1.02;0.82;;;18.20;60.80;;;;;;6246461;22;21223;-73
2022/09/04 00:11:32;;;;;;;0.80;0.80;;;18.20;60.90;;;;;;6270446;22;20011;-73
2022/09/04 00:14:02;;;;;;;0.88;0.88;;;18.10;61.10;;;;;;6246590;22;20445;-74
2022/09/04 00:16:41;;;;;;;0.75;0.75;;;18.10;61.10;;;;;;6275437;22;20064;-73
2022/09/04 00:19:26;;;;;;;0.93;0.80;;;18.10;61.30;;;;;;6249673;22;20095;-74
2022/09/04 00:21:58;;;;;;;1.23;0.98;;;18.10;61.40;;;;;;6248326;22;20021;-73
2022/09/04 00:24:31;;;;;;;1.15;0.90;;;18.10;61.40;;;;;;6275363;22;20004;-74
2022/09/04 00:27:04;;;;;;;1.33;1.10;;;18.10;61.50;;;;;;6248127;22;20019;-73
2022/09/04 00:29:56;;;;;;;0.80;0.77;;;18.00;61.40;;;;;;6275512;22;20472;-73
2022/09/04 00:32:58;;;;;;;0.68;0.68;;;18.00;61.50;;;;;;6223587;22;20027;-73
2022/09/04 00:35:31;;;;;;;0.85;0.80;;;18.10;61.70;;;;;;6248237;22;20340;-73
2022/09/04 00:38:19;;;;;;;1.30;0.80;;;18.00;61.70;;;;;;6248282;22;20061;-73
2022/09/04 00:41:00;;;;;;;0.80;0.80;;;18.00;61.80;;;;;;6276070;22;20031;-73
2022/09/04 00:43:48;;;;;;;1.10;0.95;;;18.00;61.80;;;;;;6275325;22;20066;-73
2022/09/04 00:46:50;;;;;;;0.75;0.70;;;18.00;61.80;;;;;;6274902;22;20007;-73
2022/09/04 00:49:43;;;;;;;0.80;0.80;;;18.00;62.00;;;;;;6244677;22;20012;-73
2022/09/04 00:52:39;;;;;;;0.70;0.70;;;18.00;62.10;;;;;;6247853;22;20444;-74
2022/09/04 00:55:34;;;;;;;0.80;0.80;;;17.90;62.20;;;;;;6274918;22;20049;-74
2022/09/04 00:58:14;;;;;;;0.80;0.80;;;17.90;62.30;;;;;;6222852;22;20011;-73
2022/09/04 01:00:45;;;;;;;0.70;0.70;;;17.90;62.40;;;;;;6274883;22;20034;-73
2022/09/04 01:03:26;;;;;;;;;;;17.90;62.40;;;;;;6247759;22;20012;-73
2022/09/04 01:06:14;;;;;;;0.80;0.70;;;17.90;62.40;;;;;;6275157;22;19937;-74
2022/09/04 01:09:12;;;;;;;0.50;0.50;;;17.90;62.50;;;;;;6247655;22;20313;-73
2022/09/04 01:12:16;;;;;;;0.88;0.68;;;17.90;62.60;;;;;;6274977;22;20072;-73
2022/09/04 01:15:14;;;;;;;1.17;0.95;;;17.90;62.80;;;;;;6252651;22;20083;-74
2022/09/04 01:17:50;;;;;;;0.90;0.90;;;17.90;62.90;;;;;;6275087;22;20000;-74
2022/09/04 01:20:32;;;;;;;1.08;0.80;;;17.90;63.00;;;;;;6275012;22;20003;-74
2022/09/04 01:23:27;;;;;;;1.00;0.90;;;17.80;63.20;;;;;;6275091;22;20000;-73
2022/09/04 01:26:07;;;;;;;0.70;0.70;;;18.00;64.20;;;;;;6252083;22;20000;-74
2022/09/04 01:28:53;;;;;;;0.93;0.70;;;17.80;63.60;;;;;;6275347;22;20079;-74
2022/09/04 01:31:41;;;;;;;0.82;0.80;;;17.80;63.70;;;;;;6247557;22;20031;-74
2022/09/04 01:34:34;;;;;;;0.75;0.75;;;17.70;63.80;;;;;;6247445;22;20102;-74
2022/09/04 01:37:26;;;;;;;0.70;0.70;;;17.80;63.90;;;;;;6274910;22;20011;-74
2022/09/04 01:40:16;;;;;;;0.70;0.70;;;17.80;64.10;;;;;;6252306;22;20008;-73
2022/09/04 01:42:51;;;;;;;0.73;0.73;;;17.80;64.20;;;;;;6275148;22;20011;-74
2022/09/04 01:45:45;;;;;;;0.80;0.75;;;17.70;64.30;;;;;;6275202;22;20065;-73
2022/09/04 01:48:15;;;;;;;1.00;0.75;;;17.70;64.40;;;;;;6275034;22;20015;-73
2022/09/04 01:50:45;;;;;;;1.20;0.95;;;17.70;64.60;;;;;;6220496;22;20425;-73
2022/09/04 01:53:19;;;;;;;0.80;0.70;;;17.70;64.70;;;;;;6248900;22;20428;-74
2022/09/04 01:55:56;;;;;;;0.80;0.80;;;17.60;64.80;;;;;;6222431;22;20004;-73
2022/09/04 01:58:43;;;;;;;1.00;0.90;;;17.60;65.00;;;;;;6274838;22;20015;-73
2022/09/04 02:01:38;;;;;;;0.55;0.55;;;17.70;65.20;;;;;;6274847;22;20000;-73
2022/09/04 02:04:25;;;;;;;0.73;0.73;;;17.60;65.30;;;;;;6254241;22;20003;-74
2022/09/04 02:07:20;;;;;;;0.73;0.73;;;17.50;65.30;;;;;;6222121;22;20101;-73
2022/09/04 02:10:05;;;;;;;1.05;0.90;;;17.50;65.40;;;;;;6274591;22;19999;-73
2022/09/04 02:12:51;;;;;;;1.67;0.90;;;17.50;65.60;;;;;;6274657;22;20002;-74
2022/09/04 02:15:47;;;;;;;0.70;0.70;;;17.50;65.60;;;;;;6247733;22;20004;-74
2022/09/04 02:18:35;;;;;;;1.10;0.90;;;17.50;65.70;;;;;;6252551;22;20002;-73
2022/09/04 02:21:11;;;;;;;1.02;0.80;;;17.50;65.90;;;;;;6221973;22;19996;-73
2022/09/04 02:23:51;;;;;;;1.13;0.80;;;17.40;66.00;;;;;;6249125;22;20439;-73
2022/09/04 02:26:25;;;;;;;0.82;0.73;;;17.30;66.10;;;;;;6275099;22;20004;-73
2022/09/04 02:29:16;;;;;;;1.33;0.80;;;17.30;66.10;;;;;;6274400;22;20309;-73
2022/09/04 02:32:17;;;;;;;0.50;0.50;;;17.40;66.30;;;;;;6274690;22;20010;-73
2022/09/04 02:35:02;;;;;;;0.60;0.60;;;17.30;66.30;;;;;;6274822;22;20011;-73
2022/09/04 02:37:47;;;;;;;1.10;0.90;;;17.40;66.50;;;;;;6274705;22;20011;-74
2022/09/04 02:40:27;;;;;;;0.73;0.73;;;17.30;66.50;;;;;;6247375;22;20061;-74
2022/09/04 02:43:20;;;;;;;1.13;0.80;;;17.30;66.60;;;;;;6274451;22;20022;-74
2022/09/04 02:46:09;;;;;;;0.80;0.80;;;17.20;66.70;;;;;;6274621;22;20011;-73
2022/09/04 02:49:08;;;;;;;1.02;0.70;;;17.20;66.80;;;;;;6274421;22;20008;-73
2022/09/04 02:51:52;;;;;;;0.90;0.80;;;17.20;67.00;;;;;;6225869;22;20011;-74
2022/09/04 02:54:48;;;;;;;0.77;0.77;;;17.20;67.00;;;;;;6248248;22;20004;-73
2022/09/04 02:57:32;;;;;;;0.80;0.65;;;17.20;67.10;;;;;;6274633;22;20004;-74
2022/09/04 03:00:14;;;;;;;0.90;0.90;;;17.10;67.10;;;;;;6222397;22;20018;-73
2022/09/04 03:03:00;;;;;;;0.80;0.80;;;17.10;67.20;;;;;;6250230;22;21335;-74
2022/09/04 03:05:40;;;;;;;0.80;0.80;;;17.10;67.40;;;;;;6275124;22;20004;-74
2022/09/04 03:08:29;;;;;;;1.10;0.90;;;17.10;67.50;;;;;;6247434;22;20455;-74
2022/09/04 03:11:05;;;;;;;0.98;0.75;;;17.00;67.50;;;;;;6274302;22;20027;-74
2022/09/04 03:13:48;;;;;;;1.15;0.90;;;17.00;67.50;;;;;;6273936;22;20010;-74
2022/09/04 03:16:23;;;;;;;1.00;0.90;;;17.00;67.70;;;;;;6247294;22;20004;-73
2022/09/04 03:19:14;;;;;;;0.77;0.77;;;17.00;67.80;;;;;;6274192;22;20305;-74
2022/09/04 03:21:59;;;;;;;0.70;0.65;;;17.10;68.00;;;;;;6247999;22;20431;-73
2022/09/04 03:24:33;;;;;;;0.65;0.65;;;17.00;68.00;;;;;;6246946;22;20015;-73
2022/09/04 03:27:04;;;;;;;0.70;0.70;;;16.90;68.00;;;;;;6274309;22;20019;-73
2022/09/04 03:29:50;;;;;;;1.08;0.88;;;16.90;68.10;;;;;;6273789;22;20004;-73
2022/09/04 03:32:25;;;;;;;0.90;0.90;;;16.80;68.20;;;;;;6273908;22;20015;-74
2022/09/04 03:35:12;;;;;;;0.80;0.80;;;16.90;68.30;;;;;;6274054;22;20004;-74
2022/09/04 03:38:13;;;;;;;0.90;0.82;;;16.80;68.40;;;;;;6273735;22;20103;-74
2022/09/04 03:40:44;;;;;;;1.10;1.00;;;16.80;68.50;;;;;;6274106;22;20012;-73
2022/09/04 03:43:35;;;;;;;1.10;0.85;;;16.70;68.40;;;;;;6221532;22;20133;-74
2022/09/04 03:46:22;;;;;;;0.85;0.82;;;16.80;68.70;;;;;;6274262;22;20011;-73
2022/09/04 03:49:06;;;;;;;0.70;0.70;;;16.70;68.80;;;;;;6274073;22;20015;-74
2022/09/04 03:51:44;;;;;;;0.80;0.77;;;16.70;68.80;;;;;;6275962;22;20000;-74
2022/09/04 03:54:35;;;;;;;1.48;1.15;;;16.70;68.90;;;;;;6248389;22;20045;-73
2022/09/04 03:57:34;;;;;;;1.45;1.00;;;16.70;69.00;;;;;;6275333;22;20004;-73
2022/09/04 04:00:10;;;;;;;1.20;0.82;;;16.80;69.20;;;;;;6251196;22;20086;-74
2022/09/04 04:03:01;;;;;;;1.08;0.90;;;16.60;69.10;;;;;;6245005;22;20046;-74
2022/09/04 04:05:38;;;;;;;1.20;1.02;;;16.60;69.80;;;;;;6275852;22;20006;-73
2022/09/04 04:08:27;;;;;;;0.75;0.75;;;16.60;69.20;;;;;;6248216;22;20012;-74
2022/09/04 04:11:19;;;;;;;0.88;0.82;;;16.60;69.30;;;;;;6275745;22;20007;-74
2022/09/04 04:14:16;;;;;;;0.88;0.88;;;16.70;69.50;;;;;;6253115;22;20491;-73
2022/09/04 04:17:15;;;;;;;1.00;0.90;;;16.60;69.50;;;;;;6275354;22;20461;-74
2022/09/04 04:20:04;;;;;;;1.00;0.90;;;16.50;69.60;;;;;;6252912;22;20008;-74
2022/09/04 04:22:55;;;;;;;1.48;1.10;;;16.50;69.60;;;;;;6248433;22;20038;-74
2022/09/04 04:25:50;;;;;;;1.00;0.90;;;16.50;69.70;;;;;;6275442;22;20486;-74
2022/09/04 04:28:36;;;;;;;1.20;1.10;;;16.50;69.80;;;;;;6275404;22;20007;-74
2022/09/04 04:31:18;;;;;;;1.08;0.90;;;16.50;69.90;;;;;;6275069;22;20486;-74
2022/09/04 04:34:21;;;;;;;0.88;0.88;;;16.40;69.90;;;;;;6250941;22;20000;-73
2022/09/04 04:36:59;;;;;;;0.80;0.80;;;16.40;70.00;;;;;;6275063;22;20004;-73
2022/09/04 04:39:38;;;;;;;0.93;0.80;;;16.50;70.70;;;;;;6249552;22;20079;-73
2022/09/04 04:42:22;;;;;;;0.70;0.70;;;16.40;70.10;;;;;;6270266;22;20008;-73
2022/09/04 04:48:33;;;;;;;1.60;1.10;;;16.40;70.30;;;;;;6271695;22;20466;-73
2022/09/04 04:51:12;;;;;;;;;;;16.40;70.40;;;;;;6253392;22;20000;-73
2022/09/04 04:53:54;;;;;;;0.77;0.77;;;16.40;70.30;;;;;;6275233;22;19905;-73
2022/09/04 04:56:30;;;;;;;0.70;0.70;;;16.30;70.20;;;;;;6248015;22;20004;-73
2022/09/04 04:59:22;;;;;;;1.25;1.00;;;16.30;70.30;;;;;;6275272;22;19999;-73
2022/09/04 05:02:23;;;;;;;0.80;0.73;;;16.30;70.40;;;;;;6275330;22;20008;-74
2022/09/04 05:05:01;;;;;;;1.00;0.90;;;16.30;70.40;;;;;;6248004;22;20011;-73
2022/09/04 05:07:40;;;;;;;1.20;1.10;;;16.30;70.40;;;;;;6224141;22;20105;-73
2022/09/04 05:10:43;;;;;;;0.80;0.73;;;16.30;70.50;;;;;;6275486;22;20038;-73
2022/09/04 05:13:35;;;;;;;1.38;1.00;;;16.30;70.60;;;;;;6248707;22;20391;-74
2022/09/04 05:16:22;;;;;;;0.80;0.80;;;16.30;70.70;;;;;;6275036;22;20008;-74
2022/09/04 05:18:58;;;;;;;0.98;0.80;;;16.40;70.80;;;;;;6248101;22;20015;-73
2022/09/04 05:21:42;;;;;;;0.80;0.80;;;16.40;70.70;;;;;;6247844;22;20012;-73
2022/09/04 05:24:33;;;;;;;1.10;1.00;;;16.40;70.70;;;;;;6275176;22;20027;-74
2022/09/04 05:27:06;;;;;;;;;;;16.50;70.90;;;;;;6248543;22;20339;-73
2022/09/04 05:29:46;;;;;;;1.20;0.90;;;16.50;70.70;;;;;;6275186;22;19899;-73
2022/09/04 05:32:30;;;;;;;1.20;1.10;;;16.50;70.60;;;;;;6247948;22;20004;-74
2022/09/04 05:35:11;;;;;;;1.30;1.10;;;16.50;70.80;;;;;;6274934;22;20023;-74
2022/09/04 05:37:55;;;;;;;0.80;0.80;;;16.50;70.80;;;;;;6275215;22;20493;-73
2022/09/04 05:40:49;;;;;;;1.42;1.10;;;16.50;70.80;;;;;;6274915;22;20053;-74
2022/09/04 05:43:28;;;;;;;1.02;0.80;;;16.60;70.90;;;;;;6271531;22;20012;-74
2022/09/04 05:46:17;;;;;;;0.80;0.80;;;16.60;70.80;;;;;;6274830;22;20011;-73
2022/09/04 05:49:01;;;;;;;1.33;0.98;;;16.60;70.80;;;;;;6251037;22;20429;-73
2022/09/04 05:51:52;;;;;;;1.15;0.90;;;16.60;70.80;;;;;;6248191;22;20000;-73
2022/09/04 05:54:56;;;;;;;1.10;0.90;;;16.60;70.90;;;;;;6247463;22;20395;-73
2022/09/04 05:57:56;;;;;;;0.75;0.70;;;16.70;70.90;;;;;;6275067;22;20108;-73
2022/09/04 06:00:22;;;;;;;1.00;0.80;;;16.80;70.90;;;;;;6247675;22;20070;-73
2022/09/04 06:03:20;;;;;;;0.93;0.80;;;16.80;70.90;;;;;;6247352;22;20094;-74
2022/09/04 06:06:11;;;;;;;0.98;0.88;;;16.80;71.00;;;;;;6247661;22;20008;-74
2022/09/04 06:08:47;;;;;;;;;;;16.80;70.90;;;;;;6275511;22;20008;-73
2022/09/04 06:11:49;;;;;;;0.65;0.65;;;16.80;70.80;;;;;;6274668;22;19907;-74
2022/09/04 06:14:48;;;;;;;0.75;0.75;;;16.90;70.80;;;;;;6274883;22;20042;-74
2022/09/04 06:17:36;;;;;;;1.00;0.80;;;16.80;70.80;;;;;;6275819;22;20011;-75
2022/09/04 06:20:37;;;;;;;0.80;0.80;;;16.90;70.80;;;;;;6248217;22;20072;-74
2022/09/04 06:23:25;;;;;;;1.05;0.90;;;17.00;70.80;;;;;;6247724;22;20328;-75
2022/09/04 06:26:06;;;;;;;1.35;0.95;;;17.10;70.80;;;;;;6275258;22;20416;-75
2022/09/04 06:29:10;;;;;;;1.15;1.00;;;17.10;70.80;;;;;;6274987;22;20003;-74
2022/09/04 06:31:56;;;;;;;0.68;0.68;;;17.20;70.90;;;;;;6274733;22;20004;-73
2022/09/04 06:34:50;;;;;;;1.25;0.90;;;17.30;70.80;;;;;;6275489;22;20004;-74
2022/09/04 06:37:40;;;;;;;0.75;0.70;;;17.30;70.80;;;;;;6275128;22;20034;-74
2022/09/04 06:40:21;;;;;;;1.05;0.77;;;17.40;70.80;;;;;;6251980;22;20006;-74
2022/09/04 06:43:14;;;;;;;1.00;0.90;;;17.40;70.60;;;;;;6244404;22;20044;-75
2022/09/04 06:46:11;;;;;;;1.10;1.00;;;17.60;70.60;;;;;;6252275;22;20007;-74
2022/09/04 06:49:01;;;;;;;1.38;0.90;;;17.80;70.50;;;;;;6274612;22;20008;-75
2022/09/04 06:51:52;;;;;;;0.80;0.80;;;17.90;70.30;;;;;;6274657;22;20451;-75
2022/09/04 06:54:52;;;;;;;0.85;0.80;;;18.00;70.10;;;;;;6274542;22;20012;-75
2022/09/04 06:57:49;;;;;;;1.00;0.90;;;18.10;70.00;;;;;;6274574;22;20023;-75
2022/09/04 07:00:16;;;;;;;1.55;1.15;;;18.20;69.90;;;;;;6275358;22;20070;-75
2022/09/04 07:03:00;;;;;;;0.95;0.90;;;18.30;70.50;;;;;;6275125;22;20000;-75
2022/09/04 07:05:45;;;;;;;0.85;0.80;;;18.40;69.90;;;;;;6275053;22;20447;-75
2022/09/04 07:08:41;;;;;;;0.90;0.80;;;18.40;69.80;;;;;;6247679;22;20008;-75
2022/09/04 07:11:23;;;;;;;1.00;0.80;;;18.50;69.80;;;;;;6275209;22;20019;-75
2022/09/04 07:14:15;;;;;;;1.40;1.00;;;18.60;69.70;;;;;;6245947;22;20004;-75
2022/09/04 07:17:09;;;;;;;0.85;0.63;;;18.70;69.60;;;;;;6227837;22;20042;-75
2022/09/04 07:20:06;;;;;;;0.75;0.75;;;18.80;69.60;;;;;;6245376;22;20083;-72
2022/09/04 07:22:49;;;;;;;1.10;0.90;;;18.80;69.60;;;;;;6275167;22;20416;-73
2022/09/04 07:25:25;;;;;;;1.48;0.98;;;18.90;69.70;;;;;;6275928;22;20003;-75
2022/09/04 07:28:15;;;;;;;1.45;0.90;;;18.90;69.70;;;;;;6249734;22;20018;-75
2022/09/04 07:31:05;;;;;;;1.17;1.00;;;19.00;69.80;;;;;;6248459;22;20016;-75
2022/09/04 07:33:57;;;;;;;1.00;0.90;;;19.00;69.90;;;;;;6275390;22;20081;-73
2022/09/04 07:36:37;;;;;;;1.20;0.82;;;19.00;69.90;;;;;;6275355;22;20012;-75
2022/09/04 07:39:21;;;;;;;1.30;1.00;;;19.10;70.00;;;;;;6275548;22;20039;-75
2022/09/04 07:42:11;;;;;;;0.70;0.70;;;19.10;70.00;;;;;;6276008;22;20011;-75
2022/09/04 07:44:48;;;;;;;0.90;0.90;;;19.10;70.00;;;;;;6276458;22;20102;-73
2022/09/04 07:47:21;;;;;;;0.85;0.85;;;19.20;70.10;;;;;;6275702;22;20416;-73
2022/09/04 07:50:09;;;;;;;0.80;0.73;;;19.20;70.10;;;;;;6248923;22;20063;-73
2022/09/04 07:53:06;;;;;;;1.33;1.00;;;19.30;70.10;;;;;;6275670;22;19996;-74
2022/09/04 07:55:50;;;;;;;0.57;0.57;;;19.30;70.00;;;;;;6275470;22;19995;-74
2022/09/04 07:58:49;;;;;;;1.27;1.17;;;19.50;69.90;;;;;;6275820;22;20083;-74
2022/09/04 08:01:53;;;;;;;1.00;0.95;;;19.60;69.90;;;;;;6256753;22;20003;-74
2022/09/04 08:04:57;;;;;;;1.35;1.00;;;19.70;69.80;;;;;;6275449;22;20073;-74
2022/09/04 08:08:03;;;;;;;2.55;1.33;;;19.80;69.70;;;;;;6248417;22;20018;-74
2022/09/04 08:10:52;;;;;;;1.30;1.20;;;19.90;69.50;;;;;;6229665;22;20455;-75
2022/09/04 08:13:38;;;;;;;1.13;0.98;;;20.00;69.40;;;;;;6275425;22;20000;-75
2022/09/04 08:16:13;;;;;;;1.10;0.90;;;20.20;69.20;;;;;;6276010;22;19999;-75
2022/09/04 08:19:18;;;;;;;0.70;0.70;;;20.30;68.90;;;;;;6275555;22;20006;-74
2022/09/04 08:21:47;;;;;;;1.50;1.20;;;20.60;68.70;;;;;;6275354;22;20066;-74
2022/09/04 08:24:39;;;;;;;0.73;0.73;;;20.70;68.50;;;;;;6248348;22;20020;-74
2022/09/04 08:27:35;;;;;;;0.90;0.90;;;21.00;68.40;;;;;;6245913;22;20530;-74
2022/09/04 08:30:05;;;;;;;1.80;1.38;;;21.10;68.10;;;;;;6255939;22;20007;-74
2022/09/04 08:32:54;;;;;;;1.55;1.30;;;21.20;67.80;;;;;;6249232;22;20501;-74
2022/09/04 08:35:31;;;;;;;0.90;0.90;;;21.40;67.70;;;;;;6248220;22;20490;-74
2022/09/04 08:38:25;;;;;;;1.13;0.90;;;21.40;67.60;;;;;;6275830;22;20043;-74
2022/09/04 08:41:27;;;;;;;1.10;1.00;;;21.70;67.60;;;;;;6226990;22;20448;-74
2022/09/04 08:44:33;;;;;;;1.20;0.98;;;21.80;67.30;;;;;;6252594;22;20004;-74
2022/09/04 08:47:35;;;;;;;1.13;1.02;;;21.90;67.30;;;;;;6252888;22;20019;-74
2022/09/04 08:50:31;;;;;;;1.13;0.80;;;22.10;67.20;;;;;;6275581;22;20015;-74
2022/09/04 08:53:21;;;;;;;2.05;1.20;;;22.30;66.90;;;;;;6275810;22;20020;-75
2022/09/04 08:56:22;;;;;;;1.33;0.90;;;22.50;66.70;;;;;;6275371;22;20003;-74
2022/09/04 08:59:16;;;;;;;0.98;0.85;;;22.60;66.40;;;;;;6252545;22;20613;-74
2022/09/04 09:02:11;;;;;;;1.17;1.02;;;22.80;66.20;;;;;;6252112;22;20008;-74
2022/09/04 09:05:05;;;;;;;0.63;0.63;;;23.00;66.00;;;;;;6248205;22;20014;-74
2022/09/04 09:08:00;;;;;;;1.40;0.80;;;23.20;65.80;;;;;;6274897;22;20331;-74
2022/09/04 09:10:54;;;;;;;1.63;1.00;;;23.50;65.50;;;;;;6275286;22;20000;-76
2022/09/04 09:13:59;;;;;;;1.58;0.80;;;23.50;65.30;;;;;;6253083;22;19999;-76
2022/09/04 09:16:41;;;;;;;0.85;0.85;;;23.50;65.40;;;;;;6252691;22;20087;-74
2022/09/04 09:19:21;;;;;;;0.70;0.70;;;23.70;65.40;;;;;;6275489;22;20012;-75
2022/09/04 09:22:18;;;;;;;1.02;0.90;;;24.00;65.30;;;;;;6248299;22;20343;-74
2022/09/04 09:25:08;;;;;;;0.55;0.55;;;24.00;65.10;;;;;;6276570;22;20424;-74
2022/09/04 09:28:08;;;;;;;1.85;1.05;;;24.10;64.90;;;;;;6277759;22;20396;-74
2022/09/04 09:31:08;;;;;;;0.80;0.80;;;24.20;64.70;;;;;;6277945;22;20015;-75
2022/09/04 09:34:10;;;;;;;0.85;0.82;;;24.30;64.70;;;;;;6276208;22;20008;-73
2022/09/04 09:37:01;;;;;;;0.60;0.60;;;24.40;64.80;;;;;;6274732;22;20015;-72
2022/09/04 09:39:49;;;;;;;0.60;0.60;;;24.50;64.60;;;;;;6275616;22;20011;-73
2022/09/04 09:42:49;;;;;;;1.20;1.10;;;24.50;64.50;;;;;;6275824;22;20000;-73
2022/09/04 09:45:25;;;;;;;;;;;24.60;64.30;;;;;;6275868;22;20073;-73
2022/09/04 09:48:19;;;;;;;0.60;0.60;;;24.60;64.30;;;;;;6275815;22;19911;-73
2022/09/04 09:51:11;;;;;;;0.70;0.70;;;24.70;64.20;;;;;;6275688;22;20381;-73
2022/09/04 09:54:08;;;;;;;0.85;0.80;;;24.80;64.20;;;;;;6250972;22;20012;-74
2022/09/04 09:57:00;;;;;;;0.80;0.80;;;24.80;64.00;;;;;;6256985;22;20000;-74
2022/09/04 09:59:51;;;;;;;0.80;0.80;;;24.70;63.90;;;;;;6276155;22;20010;-74
2022/09/04 10:02:47;;;;;;;1.20;1.10;;;24.70;64.00;;;;;;6251966;22;20428;-73
2022/09/04 10:05:42;;;;;;;0.75;0.75;;;24.70;63.90;;;;;;6248080;22;20008;-73
2022/09/04 10:08:33;;;;;;;0.70;0.70;;;24.70;64.10;;;;;;6253053;22;20022;-73
2022/09/04 10:11:11;;;;;;;;;;;24.70;64.00;;;;;;6276229;22;20046;-73
2022/09/04 10:14:11;;;;;;;1.05;0.90;;;24.80;64.00;;;;;;6247115;22;20228;-73
2022/09/04 10:17:11;;;;;;;1.52;1.10;;;24.70;63.80;;;;;;6275870;22;20382;-73
2022/09/04 10:20:01;;;;;;;0.65;0.65;;;24.80;63.80;;;;;;6257373;22;20427;-73
2022/09/04 10:23:02;;;;;;;0.93;0.80;;;24.80;63.80;;;;;;6225507;22;20050;-73
2022/09/04 10:25:58;;;;;;;0.57;0.57;;;24.80;63.70;;;;;;6224120;22;20008;-73
2022/09/04 10:29:09;;;;;;;0.70;0.70;;;24.90;63.60;;;;;;6248072;22;20114;-73
2022/09/04 10:32:14;;;;;;;0.68;0.68;;;25.00;63.30;;;;;;6274972;22;20003;-73
2022/09/04 10:35:02;;;;;;;0.70;0.70;;;25.10;63.10;;;;;;6252689;22;20136;-73
2022/09/04 10:37:57;;;;;;;0.77;0.77;;;25.10;62.90;;;;;;6276083;22;19996;-73
2022/09/04 10:40:34;;;;;;;1.30;0.90;;;25.30;62.70;;;;;;6275239;22;19999;-73
2022/09/04 10:43:32;;;;;;;0.95;0.90;;;25.30;62.50;;;;;;6275527;22;20000;-73
2022/09/04 10:46:08;;;;;;;0.70;0.70;;;25.30;62.40;;;;;;6275039;22;20427;-73
2022/09/04 10:48:57;;;;;;;0.90;0.77;;;25.30;62.30;;;;;;6244912;22;20006;-73
2022/09/04 10:51:53;;;;;;;0.90;0.80;;;25.50;62.10;;;;;;6275113;22;20010;-73
2022/09/04 10:54:53;;;;;;;0.80;0.80;;;25.50;61.80;;;;;;6275345;22;20318;-73
2022/09/04 10:57:44;;;;;;;0.80;0.80;;;25.60;61.60;;;;;;6275179;22;20442;-73
2022/09/04 11:00:12;;;;;;;;;;;25.70;61.40;;;;;;6274349;22;20034;-73
2022/09/04 11:03:13;;;;;;;0.60;0.60;;;25.70;61.40;;;;;;6274952;22;20350;-73
2022/09/04 11:06:14;;;;;;;0.57;0.57;;;25.70;61.30;;;;;;6275097;22;20008;-73
2022/09/04 11:08:59;;;;;;;0.77;0.68;;;25.90;61.00;;;;;;6274857;22;20011;-73
2022/09/04 11:11:43;;;;;;;0.60;0.60;;;26.10;60.40;;;;;;6250517;22;19999;-73
2022/09/04 11:14:35;;;;;;;1.80;0.90;;;26.30;60.10;;;;;;6248846;22;20070;-73
2022/09/04 11:17:35;;;;;;;1.13;0.80;;;26.30;59.80;;;;;;6274735;22;20000;-73
2022/09/04 11:20:32;;;;;;;1.02;0.90;;;26.30;59.70;;;;;;6251674;22;20011;-74
2022/09/04 11:23:25;;;;;;;0.80;0.80;;;26.30;59.70;;;;;;6258061;22;20004;-74
2022/09/04 11:26:27;;;;;;;0.75;0.75;;;26.30;59.70;;;;;;6276258;22;20075;-73
2022/09/04 11:29:26;;;;;;;0.63;0.63;;;26.30;59.90;;;;;;6274604;22;20012;-73
2022/09/04 11:32:19;;;;;;;0.70;0.70;;;26.20;59.80;;;;;;6274891;22;20065;-73
2022/09/04 11:35:20;;;;;;;0.68;0.68;;;26.20;59.80;;;;;;6274635;22;20038;-73
2022/09/04 11:38:16;;;;;;;0.40;0.40;;;26.20;59.70;;;;;;6275441;22;20142;-74
2022/09/04 11:41:18;;;;;;;1.20;0.68;;;26.30;59.80;;;;;;6274641;22;20011;-73
2022/09/04 11:44:16;;;;;;;0.77;0.60;;;26.30;59.70;;;;;;6252626;22;20012;-73
2022/09/04 11:47:17;;;;;;;0.85;0.70;;;26.20;59.60;;;;;;6247668;22;20016;-73
2022/09/04 11:50:07;;;;;;;0.60;0.60;;;26.30;59.70;;;;;;6226882;22;20015;-73
2022/09/04 11:52:57;;;;;;;0.70;0.70;;;26.40;59.60;;;;;;6273908;22;20111;-73
2022/09/04 11:55:54;;;;;;;0.80;0.80;;;26.40;59.30;;;;;;6275385;22;20008;-73
2022/09/04 11:58:47;;;;;;;0.60;0.60;;;26.60;59.10;;;;;;6252240;22;20034;-73
2022/09/04 12:01:39;;;;;;;0.70;0.70;;;26.70;58.80;;;;;;6274828;22;20007;-73
2022/09/04 12:04:27;;;;;;;0.82;0.47;;;26.80;58.70;;;;;;6275220;22;20019;-73
2022/09/04 12:07:23;;;;;;;0.60;0.60;;;26.90;58.60;;;;;;6248206;22;20317;-74
2022/09/04 12:10:28;;;;;;;0.60;0.60;;;26.80;58.60;;;;;;6275002;22;20405;-74
2022/09/04 12:13:26;;;;;;;0.50;0.50;;;26.80;58.70;;;;;;6275895;22;20000;-74
2022/09/04 12:16:29;;;;;;;0.57;0.57;;;26.80;58.80;;;;;;6248937;22;20003;-73
2022/09/04 12:19:21;;;;;;;0.60;0.60;;;26.80;58.70;;;;;;6276908;22;20034;-73
2022/09/04 12:22:08;;;;;;;0.60;0.60;;;26.90;58.70;;;;;;6276782;22;20308;-73
2022/09/04 12:25:10;;;;;;;0.60;0.60;;;26.90;58.70;;;;;;6227342;22;20004;-73
2022/09/04 12:28:01;;;;;;;1.38;0.60;;;26.90;58.60;;;;;;6259993;22;20012;-74
2022/09/04 12:30:49;;;;;;;0.45;0.45;;;26.90;58.60;;;;;;6282688;22;19999;-74
2022/09/04 12:33:45;;;;;;;0.55;0.55;;;26.90;58.60;;;;;;6282919;22;20079;-74
2022/09/04 12:36:42;;;;;;;0.70;0.70;;;26.90;58.50;;;;;;6283783;22;20008;-74
2022/09/04 12:39:28;;;;;;;0.50;0.50;;;27.00;58.50;;;;;;6286447;22;20039;-75
2022/09/04 12:42:20;;;;;;;0.60;0.60;;;27.00;58.40;;;;;;6260486;22;20004;-74
2022/09/04 12:45:22;;;;;;;1.00;0.60;;;27.30;58.30;;;;;;6285869;22;20129;-74
2022/09/04 12:48:08;;;;;;;0.63;0.63;;;27.40;57.90;;;;;;6287623;22;20011;-75
2022/09/04 12:50:53;;;;;;;0.52;0.52;;;27.50;57.50;;;;;;6261703;22;20018;-75
2022/09/04 12:53:43;;;;;;;0.50;0.50;;;27.60;57.40;;;;;;6263190;22;20007;-75
2022/09/04 12:56:41;;;;;;;1.45;0.60;;;27.70;57.20;;;;;;6285311;22;20007;-74
2022/09/04 12:59:34;;;;;;;0.80;0.60;;;27.60;57.20;;;;;;6233064;22;20007;-74
2022/09/04 13:02:26;;;;;;;1.10;0.95;;;27.40;57.30;;;;;;6239681;22;20370;-74
2022/09/04 13:05:17;;;;;;;0.90;0.90;;;27.40;57.40;;;;;;6288910;22;19999;-74
2022/09/04 13:08:02;;;;;;;0.70;0.70;;;27.40;57.10;;;;;;6285702;22;20428;-75
2022/09/04 13:10:42;;;;;;;0.77;0.77;;;27.40;57.10;;;;;;6287120;22;19996;-75
2022/09/04 13:13:40;;;;;;;0.82;0.82;;;27.40;57.00;;;;;;6285944;22;20010;-75
2022/09/04 13:16:32;;;;;;;1.17;0.90;;;27.40;56.90;;;;;;6286746;22;20068;-75
2022/09/04 13:19:16;;;;;;;0.80;0.77;;;27.50;56.60;;;;;;6234785;22;20019;-74
2022/09/04 13:22:03;;;;;;;0.75;0.75;;;27.40;56.60;;;;;;6284078;22;20436;-74
2022/09/04 13:25:01;;;;;;;1.02;0.90;;;27.40;56.80;;;;;;6258828;22;20004;-74
2022/09/04 13:27:46;;;;;;;0.80;0.75;;;27.30;57.50;;;;;;6285501;22;20007;-74
2022/09/04 13:30:20;;;;;;;0.80;0.80;;;27.30;56.90;;;;;;6257661;22;20004;-75
2022/09/04 13:33:11;;;;;;;0.65;0.65;;;27.40;56.80;;;;;;6285820;22;20012;-74
2022/09/04 13:36:17;;;;;;;0.60;0.60;;;27.40;56.60;;;;;;6295106;22;20023;-75
2022/09/04 13:39:09;;;;;;;0.85;0.70;;;27.50;56.50;;;;;;6250346;22;20018;-75
2022/09/04 13:41:58;;;;;;;0.73;0.73;;;27.60;56.30;;;;;;6295042;22;20004;-75
2022/09/04 13:44:58;;;;;;;0.60;0.60;;;27.90;56.10;;;;;;6294519;22;20031;-75
2022/09/04 13:47:25;;;;;;;0.60;0.60;;;28.00;55.60;;;;;;6296375;22;20035;-75
2022/09/04 13:50:07;;;;;;;0.52;0.52;;;28.00;55.40;;;;;;6289335;22;20000;-76
2022/09/04 13:52:42;;;;;;;0.70;0.70;;;28.00;55.30;;;;;;6261476;22;20014;-73
2022/09/04 13:55:16;;;;;;;0.52;0.52;;;28.10;55.20;;;;;;6234170;22;19996;-75
2022/09/04 13:57:56;;;;;;;0.60;0.60;;;28.20;55.00;;;;;;6262947;22;20083;-75
2022/09/04 14:00:24;;;;;;;2.30;0.60;;;28.20;54.80;;;;;;6288311;22;20007;-74
2022/09/04 14:02:57;;;;;;;0.47;0.47;;;28.30;54.80;;;;;;6287996;22;20010;-75
2022/09/04 14:05:24;;;;;;;0.70;0.70;;;28.20;54.80;;;;;;6260232;22;20004;-75
2022/09/04 14:08:02;;;;;;;0.63;0.63;;;28.20;54.80;;;;;;6287332;22;20008;-75
2022/09/04 14:10:54;;;;;;;0.60;0.60;;;28.20;54.80;;;;;;6258693;22;20036;-75
2022/09/04 14:13:50;;;;;;;0.60;0.60;;;28.20;54.60;;;;;;6260194;22;20015;-74
2022/09/04 14:16:17;;;;;;;0.50;0.50;;;28.20;54.50;;;;;;6284158;22;20007;-75
2022/09/04 14:19:19;;;;;;;0.40;0.40;;;28.30;54.60;;;;;;6281672;22;20004;-75
2022/09/04 14:22:09;;;;;;;0.70;0.70;;;28.20;54.30;;;;;;6280061;22;20011;-74
2022/09/04 14:25:04;;;;;;;0.50;0.50;;;28.10;54.30;;;;;;6256425;22;20007;-75
2022/09/04 14:28:03;;;;;;;0.60;0.60;;;28.10;54.40;;;;;;6233762;22;20324;-75
2022/09/04 14:30:39;;;;;;;0.60;0.60;;;28.10;54.30;;;;;;6264929;22;20090;-73
2022/09/04 14:33:35;;;;;;;0.68;0.68;;;28.00;54.20;;;;;;6275805;22;20007;-74
2022/09/04 14:36:19;;;;;;;0.60;0.60;;;28.00;54.20;;;;;;6223865;22;20004;-74
2022/09/04 14:39:19;;;;;;;0.50;0.50;;;28.10;54.10;;;;;;6275530;22;20423;-74
2022/09/04 14:42:11;;;;;;;0.50;0.50;;;28.10;53.90;;;;;;6276977;22;20006;-74